createdAt,value
2018-01-28T00:00:14.929Z,4.70
2018-01-28T00:02:42.426Z,4.70
2018-01-28T00:05:09.869Z,4.70
2018-01-28T00:07:37.380Z,4.60
2018-01-28T00:10:05.591Z,4.60
2018-01-28T00:12:33.054Z,4.60
2018-01-28T00:15:00.512Z,4.60
2018-01-28T00:17:27.964Z,4.60
2018-01-28T00:19:55.430Z,4.60
2018-01-28T00:22:22.881Z,4.60
2018-01-28T00:24:50.345Z,4.60
2018-01-28T00:27:17.810Z,4.50
2018-01-28T00:29:45.293Z,4.50
2018-01-28T00:32:13.502Z,4.50
2018-01-28T00:34:40.965Z,4.50
2018-01-28T00:37:08.425Z,4.50
2018-01-28T00:39:35.889Z,4.50
2018-01-28T00:42:03.342Z,4.40
2018-01-28T00:44:30.799Z,4.40
2018-01-28T00:46:58.257Z,4.30
2018-01-28T00:49:25.717Z,4.30
2018-01-28T00:51:53.164Z,4.20
2018-01-28T00:54:20.625Z,4.20
2018-01-28T00:56:48.077Z,4.20
2018-01-28T00:59:15.536Z,4.20
2018-01-28T01:01:42.998Z,4.20
2018-01-28T01:04:10.453Z,4.20
2018-01-28T01:06:37.904Z,4.20
2018-01-28T01:09:06.138Z,4.20
2018-01-28T01:11:34.358Z,4.10
2018-01-28T01:14:01.858Z,4.10
2018-01-28T01:16:30.073Z,4.10
2018-01-28T01:18:57.533Z,4.10
2018-01-28T01:21:24.989Z,4.10
2018-01-28T01:23:52.453Z,4.10
2018-01-28T01:26:19.911Z,4.10
2018-01-28T01:28:47.369Z,4.00
2018-01-28T01:31:14.828Z,4.00
2018-01-28T01:33:42.303Z,4.00
2018-01-28T01:36:09.765Z,3.90
2018-01-28T01:38:37.229Z,4.00
2018-01-28T01:41:04.681Z,4.00
2018-01-28T01:43:32.130Z,4.00
2018-01-28T01:45:59.594Z,4.00
2018-01-28T01:48:27.045Z,4.00
2018-01-28T01:50:54.501Z,4.00
2018-01-28T01:53:21.957Z,4.00
2018-01-28T01:55:49.415Z,4.00
2018-01-28T01:58:16.869Z,4.00
2018-01-28T02:00:44.321Z,4.00
2018-01-28T02:03:11.785Z,4.00
2018-01-28T02:05:39.249Z,3.90
2018-01-28T02:08:06.703Z,3.90
2018-01-28T02:10:34.157Z,3.90
2018-01-28T02:13:01.605Z,3.90
2018-01-28T02:15:29.070Z,3.90
2018-01-28T02:17:56.520Z,3.90
2018-01-28T02:20:24.049Z,4.00
2018-01-28T02:22:51.506Z,4.00
2018-01-28T02:25:18.965Z,4.00
2018-01-28T02:27:46.420Z,4.10
2018-01-28T02:30:13.881Z,4.10
2018-01-28T02:32:41.337Z,4.10
2018-01-28T02:35:08.798Z,4.10
2018-01-28T02:37:36.253Z,4.10
2018-01-28T02:40:03.710Z,4.20
2018-01-28T02:42:31.169Z,4.20
2018-01-28T02:44:58.621Z,4.30
2018-01-28T02:47:26.085Z,4.40
2018-01-28T02:49:53.543Z,4.50
2018-01-28T02:52:21.010Z,4.60
2018-01-28T02:54:48.460Z,4.60
2018-01-28T02:57:15.925Z,4.70
2018-01-28T02:59:43.384Z,4.80
2018-01-28T03:02:10.844Z,4.90
2018-01-28T03:04:38.298Z,4.90
2018-01-28T03:07:05.762Z,5.00
2018-01-28T03:09:33.981Z,5.10
2018-01-28T03:12:01.454Z,5.10
2018-01-28T03:14:28.909Z,5.20
2018-01-28T03:16:56.481Z,5.20
2018-01-28T03:19:23.939Z,5.30
2018-01-28T03:21:52.174Z,5.30
2018-01-28T03:24:20.396Z,5.40
2018-01-28T03:26:47.864Z,5.40
2018-01-28T03:29:15.316Z,5.40
2018-01-28T03:31:42.781Z,5.50
2018-01-28T03:34:10.246Z,5.50
2018-01-28T03:36:37.709Z,5.60
2018-01-28T03:39:05.164Z,5.60
2018-01-28T03:41:32.621Z,5.60
2018-01-28T03:44:00.077Z,5.70
2018-01-28T03:46:27.537Z,5.70
2018-01-28T03:48:54.996Z,5.70
2018-01-28T03:51:23.234Z,5.80
2018-01-28T03:53:50.685Z,5.70
2018-01-28T03:56:18.922Z,5.80
2018-01-28T03:58:46.373Z,5.80
2018-01-28T04:01:14.614Z,5.90
2018-01-28T04:03:42.070Z,5.80
2018-01-28T04:06:09.517Z,5.90
2018-01-28T04:08:36.977Z,5.90
2018-01-28T04:11:04.428Z,5.90
2018-01-28T04:13:31.888Z,6.00
2018-01-28T04:15:59.343Z,6.00
2018-01-28T04:18:26.812Z,6.10
2018-01-28T04:20:54.263Z,6.10
2018-01-28T04:23:21.729Z,6.10
2018-01-28T04:25:49.181Z,6.10
2018-01-28T04:28:16.645Z,6.20
2018-01-28T04:30:44.138Z,6.20
2018-01-28T04:33:12.350Z,6.20
2018-01-28T04:35:39.800Z,6.20
2018-01-28T04:38:07.274Z,6.30
2018-01-28T04:40:34.720Z,6.30
2018-01-28T04:43:02.184Z,6.30
2018-01-28T04:45:29.643Z,6.30
2018-01-28T04:47:57.097Z,6.40
2018-01-28T04:50:24.546Z,6.40
2018-01-28T04:52:52.000Z,6.40
2018-01-28T04:55:19.458Z,6.50
2018-01-28T04:57:46.922Z,6.50
2018-01-28T05:00:15.122Z,6.50
2018-01-28T05:02:42.578Z,6.50
2018-01-28T05:05:10.026Z,6.50
2018-01-28T05:07:37.489Z,6.60
2018-01-28T05:10:04.938Z,6.60
2018-01-28T05:12:32.400Z,6.60
2018-01-28T05:14:59.857Z,6.60
2018-01-28T05:17:27.316Z,6.70
2018-01-28T05:19:54.761Z,6.70
2018-01-28T05:22:22.209Z,6.70
2018-01-28T05:24:49.678Z,6.70
2018-01-28T05:27:17.133Z,6.70
2018-01-28T05:29:44.585Z,6.80
2018-01-28T05:32:12.033Z,6.80
2018-01-28T05:34:40.301Z,6.80
2018-01-28T05:37:07.749Z,6.80
2018-01-28T05:39:35.206Z,6.80
2018-01-28T05:42:02.654Z,6.90
2018-01-28T05:44:30.105Z,6.90
2018-01-28T05:46:57.544Z,6.90
2018-01-28T05:49:25.004Z,6.90
2018-01-28T05:51:52.456Z,6.90
2018-01-28T05:54:19.913Z,6.90
2018-01-28T05:56:47.373Z,6.90
2018-01-28T05:59:14.832Z,6.90
2018-01-28T06:01:42.282Z,6.90
2018-01-28T06:04:09.733Z,6.90
2018-01-28T06:09:12.769Z,7.00
2018-01-28T06:11:40.221Z,7.00
2018-01-28T06:14:07.678Z,7.00
2018-01-28T06:16:35.127Z,7.00
2018-01-28T06:19:02.815Z,7.00
2018-01-28T06:21:30.279Z,7.00
2018-01-28T06:23:57.730Z,7.00
2018-01-28T06:26:25.197Z,7.00
2018-01-28T06:28:52.641Z,7.00
2018-01-28T06:31:20.864Z,7.10
2018-01-28T06:33:49.081Z,7.10
2018-01-28T06:36:16.538Z,7.00
2018-01-28T06:38:43.985Z,7.10
2018-01-28T06:41:11.448Z,7.00
2018-01-28T06:43:38.889Z,7.00
2018-01-28T06:46:06.350Z,7.10
2018-01-28T06:48:33.796Z,7.00
2018-01-28T06:51:01.278Z,7.00
2018-01-28T06:53:28.720Z,7.10
2018-01-28T06:55:56.178Z,7.10
2018-01-28T06:58:23.617Z,7.10
2018-01-28T07:00:51.083Z,7.10
2018-01-28T07:03:18.520Z,7.10
2018-01-28T07:05:45.972Z,7.10
2018-01-28T07:08:14.193Z,7.10
2018-01-28T07:10:41.650Z,7.10
2018-01-28T07:13:09.101Z,7.10
2018-01-28T07:15:36.565Z,7.10
2018-01-28T07:18:04.004Z,7.10
2018-01-28T07:20:31.469Z,7.10
2018-01-28T07:22:58.924Z,7.10
2018-01-28T07:25:26.384Z,7.20
2018-01-28T07:27:53.840Z,7.20
2018-01-28T07:30:21.302Z,7.20
2018-01-28T07:32:48.761Z,7.20
2018-01-28T07:35:16.213Z,7.20
2018-01-28T07:37:44.437Z,7.20
2018-01-28T07:40:12.658Z,7.20
2018-01-28T07:42:40.123Z,7.20
2018-01-28T07:45:07.574Z,7.20
2018-01-28T07:47:35.029Z,7.20
2018-01-28T07:50:02.485Z,7.20
2018-01-28T07:52:29.936Z,7.30
2018-01-28T07:54:57.397Z,7.30
2018-01-28T07:57:24.849Z,7.30
2018-01-28T07:59:52.299Z,7.30
2018-01-28T08:02:19.748Z,7.30
2018-01-28T08:04:47.193Z,7.30
2018-01-28T08:07:14.656Z,7.30
2018-01-28T08:09:42.101Z,7.40
2018-01-28T08:12:13.901Z,7.40
2018-01-28T08:14:41.344Z,7.40
2018-01-28T08:17:08.797Z,7.40
2018-01-28T08:19:36.355Z,7.50
2018-01-28T08:22:03.793Z,7.50
2018-01-28T08:24:31.237Z,7.50
2018-01-28T08:27:10.298Z,7.60
2018-01-28T08:29:37.745Z,7.60
2018-01-28T08:32:05.205Z,7.60
2018-01-28T08:34:32.662Z,7.70
2018-01-28T08:37:00.117Z,7.70
2018-01-28T08:39:27.567Z,7.70
2018-01-28T08:41:55.023Z,7.70
2018-01-28T08:44:22.468Z,7.70
2018-01-28T08:46:50.717Z,7.80
2018-01-28T08:49:18.144Z,7.80
2018-01-28T08:51:45.588Z,7.80
2018-01-28T08:54:13.041Z,7.90
2018-01-28T08:56:40.492Z,7.90
2018-01-28T08:59:07.949Z,7.90
2018-01-28T09:01:35.396Z,7.90
2018-01-28T09:04:02.852Z,8.00
2018-01-28T09:06:30.305Z,8.00
2018-01-28T09:08:57.760Z,8.10
2018-01-28T09:11:25.212Z,8.10
2018-01-28T09:13:53.424Z,8.10
2018-01-28T09:16:20.867Z,8.20
2018-01-28T09:18:48.320Z,8.20
2018-01-28T09:21:15.765Z,8.30
2018-01-28T09:23:43.216Z,8.30
2018-01-28T09:26:10.661Z,8.40
2018-01-28T09:28:38.881Z,8.40
2018-01-28T09:31:06.332Z,8.40
2018-01-28T09:33:33.777Z,8.50
2018-01-28T09:36:01.233Z,8.50
2018-01-28T09:38:28.681Z,8.60
2018-01-28T09:40:56.129Z,8.60
2018-01-28T09:43:24.348Z,8.60
2018-01-28T09:45:51.800Z,8.60
2018-01-28T09:48:19.252Z,8.60
2018-01-28T09:50:46.700Z,8.60
2018-01-28T09:53:14.203Z,8.70
2018-01-28T09:55:41.621Z,8.70
2018-01-28T09:58:09.080Z,8.70
2018-01-28T10:00:36.590Z,8.80
2018-01-28T10:03:04.830Z,8.80
2018-01-28T10:05:32.271Z,8.80
2018-01-28T10:07:59.716Z,8.80
2018-01-28T10:10:27.169Z,8.80
2018-01-28T10:12:54.613Z,8.90
2018-01-28T10:15:22.066Z,8.90
2018-01-28T10:17:49.515Z,8.90
2018-01-28T10:20:16.977Z,8.90
2018-01-28T10:22:44.425Z,8.90
2018-01-28T10:25:11.880Z,9.00
2018-01-28T10:27:39.321Z,9.00
2018-01-28T10:30:07.544Z,9.10
2018-01-28T10:32:34.985Z,9.10
2018-01-28T10:35:02.452Z,9.10
2018-01-28T10:37:29.889Z,9.10
2018-01-28T10:39:57.372Z,9.10
2018-01-28T10:42:24.817Z,9.20
2018-01-28T10:44:52.274Z,9.20
2018-01-28T10:47:19.724Z,9.20
2018-01-28T10:49:47.189Z,9.30
2018-01-28T10:52:14.616Z,9.30
2018-01-28T10:54:42.074Z,9.30
2018-01-28T10:57:11.289Z,9.40
2018-01-28T10:59:38.728Z,9.30
2018-01-28T11:02:06.168Z,9.40
2018-01-28T11:04:34.435Z,9.40
2018-01-28T11:07:01.843Z,9.40
2018-01-28T11:09:29.331Z,9.40
2018-01-28T11:11:56.770Z,9.40
2018-01-28T11:14:24.233Z,9.40
2018-01-28T11:16:51.684Z,9.40
2018-01-28T11:19:19.137Z,9.50
2018-01-28T11:21:46.591Z,9.50
2018-01-28T11:24:14.038Z,9.50
2018-01-28T11:26:41.488Z,9.60
2018-01-28T11:29:08.945Z,9.60
2018-01-28T11:31:36.451Z,9.70
2018-01-28T11:34:03.935Z,9.70
2018-01-28T11:36:32.137Z,9.80
2018-01-28T11:38:59.627Z,9.80
2018-01-28T11:41:27.069Z,9.90
2018-01-28T11:43:54.525Z,9.90
2018-01-28T11:46:22.008Z,10.00
2018-01-28T11:48:49.499Z,10.10
2018-01-28T11:51:17.712Z,10.20
2018-01-28T11:53:45.160Z,10.20
2018-01-28T11:56:12.616Z,10.30
2018-01-28T11:58:40.064Z,10.30
2018-01-28T12:01:07.517Z,10.40
2018-01-28T12:03:34.974Z,10.40
2018-01-28T12:06:02.478Z,10.40
2018-01-28T12:08:29.924Z,10.40
2018-01-28T12:10:57.389Z,10.40
2018-01-28T12:13:24.878Z,10.40
2018-01-28T12:15:53.131Z,10.40
2018-01-28T12:18:20.565Z,10.40
2018-01-28T12:20:48.076Z,10.40
2018-01-28T12:23:16.282Z,10.40
2018-01-28T12:25:43.736Z,10.40
2018-01-28T12:28:11.184Z,10.40
2018-01-28T12:30:38.642Z,10.50
2018-01-28T12:33:06.156Z,10.40
2018-01-28T12:35:33.639Z,10.50
2018-01-28T12:38:01.090Z,10.50
2018-01-28T12:40:28.549Z,10.60
2018-01-28T12:42:55.992Z,10.60
2018-01-28T12:45:24.222Z,10.70
2018-01-28T12:47:51.678Z,10.70
2018-01-28T12:50:19.176Z,10.70
2018-01-28T12:52:47.440Z,10.80
2018-01-28T12:55:14.918Z,10.80
2018-01-28T12:57:43.134Z,10.80
2018-01-28T13:00:10.583Z,10.80
2018-01-28T13:02:38.079Z,10.90
2018-01-28T13:05:05.515Z,10.90
2018-01-28T13:07:32.984Z,11.00
2018-01-28T13:10:00.484Z,11.00
2018-01-28T13:12:28.742Z,11.00
2018-01-28T13:14:56.181Z,11.00
2018-01-28T13:17:23.632Z,11.00
2018-01-28T13:19:51.097Z,11.00
2018-01-28T13:22:18.557Z,11.10
2018-01-28T13:24:46.001Z,11.10
2018-01-28T13:27:13.544Z,11.10
2018-01-28T13:29:41.160Z,11.10
2018-01-28T13:32:08.695Z,11.10
2018-01-28T13:34:36.126Z,11.20
2018-01-28T13:37:03.580Z,11.20
2018-01-28T13:39:31.034Z,11.20
2018-01-28T13:41:58.497Z,11.20
2018-01-28T13:44:26.016Z,11.20
2018-01-28T13:46:53.522Z,11.10
2018-01-28T13:49:21.037Z,11.10
2018-01-28T13:51:48.538Z,11.10
2018-01-28T13:54:16.028Z,11.00
2018-01-28T13:56:44.279Z,11.00
2018-01-28T13:59:11.775Z,11.00
2018-01-28T14:01:39.989Z,11.10
2018-01-28T14:04:07.446Z,11.00
2018-01-28T14:06:34.897Z,11.10
2018-01-28T14:09:02.424Z,11.20
2018-01-28T14:11:29.852Z,11.20
2018-01-28T14:13:58.074Z,11.20
2018-01-28T14:16:25.521Z,11.10
2018-01-28T14:18:52.982Z,11.10
2018-01-28T14:21:20.433Z,11.00
2018-01-28T14:23:47.888Z,11.00
2018-01-28T14:26:15.343Z,10.90
2018-01-28T14:28:42.804Z,10.90
2018-01-28T14:31:10.307Z,10.90
2018-01-28T14:33:38.604Z,11.00
2018-01-28T14:36:06.856Z,11.00
2018-01-28T14:38:34.306Z,11.00
2018-01-28T14:41:01.766Z,11.00
2018-01-28T14:43:29.268Z,11.00
2018-01-28T14:45:56.709Z,11.00
2018-01-28T14:48:24.184Z,11.00
2018-01-28T14:50:51.687Z,11.00
2018-01-28T14:53:19.137Z,10.90
2018-01-28T14:55:46.590Z,10.90
2018-01-28T14:58:14.087Z,10.90
2018-01-28T15:00:42.342Z,10.80
2018-01-28T15:03:09.828Z,10.80
2018-01-28T15:05:38.088Z,10.80
2018-01-28T15:08:05.528Z,10.70
2018-01-28T15:10:32.979Z,10.70
2018-01-28T15:13:00.485Z,10.70
2018-01-28T15:15:27.984Z,10.70
2018-01-28T15:17:55.468Z,10.70
2018-01-28T15:20:22.998Z,10.70
2018-01-28T15:22:50.400Z,10.70
2018-01-28T15:25:17.862Z,10.60
2018-01-28T15:27:45.364Z,10.60
2018-01-28T15:30:13.632Z,10.50
2018-01-28T15:32:41.124Z,10.50
2018-01-28T15:35:08.569Z,10.50
2018-01-28T15:37:36.068Z,10.50
2018-01-28T15:40:04.339Z,10.50
2018-01-28T15:42:32.598Z,10.40
2018-01-28T15:45:00.051Z,10.40
2018-01-28T15:47:27.488Z,10.40
2018-01-28T15:49:55.004Z,10.40
2018-01-28T15:52:22.491Z,10.40
2018-01-28T15:54:49.937Z,10.30
2018-01-28T15:57:17.432Z,10.30
2018-01-28T15:59:44.885Z,10.30
2018-01-28T16:02:12.338Z,10.30
2018-01-28T16:04:39.799Z,10.30
2018-01-28T16:07:07.287Z,10.20
2018-01-28T16:09:35.536Z,10.20
2018-01-28T16:12:03.007Z,10.20
2018-01-28T16:14:31.216Z,10.20
2018-01-28T16:16:58.676Z,10.10
2018-01-28T16:19:26.176Z,10.20
2018-01-28T16:21:53.675Z,10.10
2018-01-28T16:24:21.128Z,10.10
2018-01-28T16:26:48.582Z,10.10
2018-01-28T16:29:16.038Z,10.10
2018-01-28T16:31:43.551Z,10.10
2018-01-28T16:34:10.992Z,10.10
2018-01-28T16:36:38.449Z,10.00
2018-01-28T16:39:05.897Z,10.00
2018-01-28T16:41:33.399Z,10.00
2018-01-28T16:44:00.857Z,10.00
2018-01-28T16:46:29.132Z,9.90
2018-01-28T16:48:56.677Z,9.90
2018-01-28T16:51:24.176Z,9.90
2018-01-28T16:53:51.649Z,9.90
2018-01-28T16:56:19.832Z,9.90
2018-01-28T16:58:47.280Z,9.80
2018-01-28T17:01:14.783Z,9.80
2018-01-28T17:03:42.260Z,9.80
2018-01-28T17:06:10.511Z,9.80
2018-01-28T17:08:37.999Z,9.80
2018-01-28T17:11:06.263Z,9.80
2018-01-28T17:13:34.469Z,9.70
2018-01-28T17:16:01.968Z,9.70
2018-01-28T17:18:29.452Z,9.70
2018-01-28T17:20:57.708Z,9.80
2018-01-28T17:23:25.192Z,9.80
2018-01-28T17:25:53.389Z,9.80
2018-01-28T17:28:20.848Z,9.70
2018-01-28T17:30:48.294Z,9.70
2018-01-28T17:33:15.802Z,9.70
2018-01-28T17:35:48.298Z,9.70
2018-01-28T17:38:16.521Z,9.70
2018-01-28T17:40:44.011Z,9.70
2018-01-28T17:43:11.470Z,9.70
2018-01-28T17:45:38.957Z,9.70
2018-01-28T17:48:07.178Z,9.60
2018-01-28T17:50:34.630Z,9.60
2018-01-28T17:53:02.122Z,9.70
2018-01-28T17:55:29.619Z,9.60
2018-01-28T17:57:57.107Z,9.60
2018-01-28T18:00:24.587Z,9.60
2018-01-28T18:02:52.080Z,9.60
2018-01-28T18:05:19.571Z,9.60
2018-01-28T18:07:47.052Z,9.60
2018-01-28T18:10:14.490Z,9.60
2018-01-28T18:12:41.996Z,9.60
2018-01-28T18:15:10.206Z,9.50
2018-01-28T18:17:37.657Z,9.60
2018-01-28T18:20:05.101Z,9.60
2018-01-28T18:22:32.615Z,9.60
2018-01-28T18:25:00.054Z,9.50
2018-01-28T18:27:27.568Z,9.50
2018-01-28T18:29:55.832Z,9.40
2018-01-28T18:32:24.098Z,9.40
2018-01-28T18:34:51.592Z,9.40
2018-01-28T18:37:19.063Z,9.40
2018-01-28T18:39:46.554Z,9.40
2018-01-28T18:42:14.044Z,9.30
2018-01-28T18:44:42.244Z,9.30
2018-01-28T18:47:09.698Z,9.20
2018-01-28T18:49:37.150Z,9.20
2018-01-28T18:52:04.596Z,9.20
2018-01-28T18:54:32.092Z,9.20
2018-01-28T18:56:59.570Z,9.20
2018-01-28T18:59:27.037Z,9.20
2018-01-28T19:01:54.532Z,9.20
2018-01-28T19:04:22.016Z,9.20
2018-01-28T19:06:49.455Z,9.10
2018-01-28T19:09:16.905Z,9.10
2018-01-28T19:11:44.404Z,9.00
2018-01-28T19:14:11.892Z,9.00
2018-01-28T19:16:40.154Z,9.00
2018-01-28T19:19:07.661Z,9.00
2018-01-28T19:21:35.155Z,9.00
2018-01-28T19:24:02.652Z,8.90
2018-01-28T19:26:31.242Z,8.90
2018-01-28T19:28:58.697Z,8.90
2018-01-28T19:31:26.208Z,8.90
2018-01-28T19:33:53.694Z,8.90
2018-01-28T19:36:21.944Z,8.80
2018-01-28T19:38:49.419Z,8.80
2018-01-28T19:41:16.857Z,8.80
2018-01-28T19:43:44.308Z,8.80
2018-01-28T19:46:11.815Z,8.70
2018-01-28T19:48:40.034Z,8.70
2018-01-28T19:51:07.522Z,8.70
2018-01-28T19:53:35.008Z,8.70
2018-01-28T19:56:02.473Z,8.70
2018-01-28T19:58:29.913Z,8.70
2018-01-28T20:00:57.366Z,8.70
2018-01-28T20:03:25.614Z,8.70
2018-01-28T20:05:53.106Z,8.60
2018-01-28T20:08:21.355Z,8.70
2018-01-28T20:10:48.851Z,8.70
2018-01-28T20:13:16.347Z,8.70
2018-01-28T20:15:43.851Z,8.70
2018-01-28T20:18:12.054Z,8.70
2018-01-28T20:20:39.561Z,8.70
2018-01-28T20:23:07.043Z,8.70
2018-01-28T20:25:35.332Z,8.70
2018-01-28T20:28:02.815Z,8.70
2018-01-28T20:30:30.402Z,8.80
2018-01-28T20:32:57.862Z,8.70
2018-01-28T20:35:25.349Z,8.70
2018-01-28T20:37:53.616Z,8.80
2018-01-28T20:40:21.884Z,8.80
2018-01-28T20:42:50.144Z,8.80
2018-01-28T20:45:17.640Z,8.80
2018-01-28T20:47:45.120Z,8.80
2018-01-28T20:50:12.616Z,8.80
2018-01-28T20:52:40.110Z,8.80
2018-01-28T20:55:07.569Z,8.80
2018-01-28T20:57:35.024Z,8.80
2018-01-28T21:00:02.536Z,8.80
2018-01-28T21:02:30.025Z,8.80
2018-01-28T21:04:58.288Z,8.90
2018-01-28T21:07:25.736Z,8.90
2018-01-28T21:09:53.240Z,8.90
2018-01-28T21:12:20.750Z,8.90
2018-01-28T21:14:48.236Z,8.90
2018-01-28T21:17:16.493Z,8.90
2018-01-28T21:19:44.763Z,8.90
2018-01-28T21:22:12.261Z,8.90
2018-01-28T21:24:39.692Z,8.90
2018-01-28T21:27:07.226Z,8.90
2018-01-28T21:29:34.706Z,8.90
2018-01-28T21:32:02.946Z,8.90
2018-01-28T21:34:30.448Z,8.90
2018-01-28T21:36:58.707Z,8.90
2018-01-28T21:39:26.964Z,8.90
2018-01-28T21:41:54.406Z,8.90
2018-01-28T21:44:21.908Z,8.90
2018-01-28T21:46:50.179Z,8.90
2018-01-28T21:49:18.384Z,8.80
2018-01-28T21:51:45.891Z,8.80
2018-01-28T21:54:13.380Z,8.80
2018-01-28T21:56:41.648Z,8.80
2018-01-28T21:59:09.908Z,8.80
2018-01-28T22:01:37.392Z,8.80
2018-01-28T22:04:04.868Z,8.80
2018-01-28T22:06:32.364Z,8.80
2018-01-28T22:08:59.790Z,8.80
2018-01-28T22:11:27.292Z,8.80
2018-01-28T22:13:54.785Z,8.80
2018-01-28T22:16:22.273Z,8.80
2018-01-28T22:18:49.754Z,8.80
2018-01-28T22:21:17.231Z,8.80
2018-01-28T22:23:45.478Z,8.80
2018-01-28T22:26:12.974Z,8.80
2018-01-28T22:28:41.180Z,8.80
2018-01-28T22:31:08.680Z,8.80
2018-01-28T22:33:36.123Z,8.80
2018-01-28T22:36:03.581Z,8.80
2018-01-28T22:38:31.037Z,8.80
2018-01-28T22:40:59.311Z,8.80
2018-01-28T22:43:26.812Z,8.70
2018-01-28T22:45:55.052Z,8.80
2018-01-28T22:48:22.555Z,8.80
2018-01-28T22:50:49.984Z,8.80
2018-01-28T22:53:18.212Z,8.80
2018-01-28T22:55:45.696Z,8.80
2018-01-28T22:58:13.148Z,8.80
2018-01-28T23:00:40.640Z,8.80
2018-01-28T23:03:08.886Z,8.80
2018-01-28T23:05:36.365Z,8.80
2018-01-28T23:08:04.576Z,8.80
2018-01-28T23:10:32.024Z,8.80
2018-01-28T23:12:59.481Z,8.80
2018-01-28T23:15:26.920Z,8.80
2018-01-28T23:17:54.380Z,8.80
2018-01-28T23:20:21.820Z,8.80
2018-01-28T23:22:50.116Z,8.80
2018-01-28T23:25:17.588Z,8.80
2018-01-28T23:27:45.044Z,8.80
2018-01-28T23:30:12.501Z,8.80
2018-01-28T23:32:39.950Z,8.70
2018-01-28T23:35:07.412Z,8.70
2018-01-28T23:37:34.898Z,8.70
2018-01-28T23:40:02.345Z,8.70
2018-01-28T23:42:29.784Z,8.70
2018-01-28T23:44:57.238Z,8.60
2018-01-28T23:47:24.688Z,8.60
2018-01-28T23:49:52.153Z,8.60
2018-01-28T23:52:19.605Z,8.50
2018-01-28T23:54:47.061Z,8.50
2018-01-28T23:57:14.507Z,8.40
2018-01-28T23:59:41.961Z,8.40
